sensor_id;sensor_type;location;lat;lon;timestamp;pressure;altitude;pressure_sealevel;temperature;humidity
59274;BME280;45044;41.572;24.730;2023-04-01T00:00:59;90728.88;;;3.27;100.00
59274;BME280;45044;41.572;24.730;2023-04-01T00:03:26;90723.94;;;3.41;100.00
59274;BME280;45044;41.572;24.730;2023-04-01T00:05:54;90720.16;;;3.39;100.00
59274;BME280;45044;41.572;24.730;2023-04-01T00:08:21;90710.94;;;3.41;100.00
59274;BME280;45044;41.572;24.730;2023-04-01T00:10:48;90713.97;;;3.43;100.00
59274;BME280;45044;41.572;24.730;2023-04-01T00:13:14;90705.00;;;3.41;100.00
59274;BME280;45044;41.572;24.730;2023-04-01T00:15:42;90713.00;;;3.12;100.00
59274;BME280;45044;41.572;24.730;2023-04-01T00:18:09;90715.19;;;3.10;100.00
59274;BME280;45044;41.572;24.730;2023-04-01T00:20:35;90705.81;;;3.25;100.00
59274;BME280;45044;41.572;24.730;2023-04-01T00:23:02;90720.25;;;3.42;100.00
59274;BME280;45044;41.572;24.730;2023-04-01T00:25:29;90711.09;;;3.49;100.00
59274;BME280;45044;41.572;24.730;2023-04-01T00:27:56;90700.69;;;3.49;100.00
59274;BME280;45044;41.572;24.730;2023-04-01T00:30:23;90691.56;;;3.58;100.00
59274;BME280;45044;41.572;24.730;2023-04-01T00:32:52;90692.00;;;3.41;100.00
59274;BME280;45044;41.572;24.730;2023-04-01T00:35:20;90690.50;;;3.40;100.00
59274;BME280;45044;41.572;24.730;2023-04-01T00:37:46;90685.38;;;3.43;100.00
59274;BME280;45044;41.572;24.730;2023-04-01T00:42:51;90691.63;;;3.62;100.00
59274;BME280;45044;41.572;24.730;2023-04-01T00:45:25;90688.88;;;3.75;100.00
59274;BME280;45044;41.572;24.730;2023-04-01T00:47:52;90689.13;;;3.89;100.00
59274;BME280;45044;41.572;24.730;2023-04-01T00:50:20;90681.31;;;3.89;100.00
59274;BME280;45044;41.572;24.730;2023-04-01T00:52:48;90692.13;;;3.91;100.00
59274;BME280;45044;41.572;24.730;2023-04-01T00:55:15;90685.75;;;3.65;100.00
59274;BME280;45044;41.572;24.730;2023-04-01T00:57:43;90678.09;;;3.73;100.00
59274;BME280;45044;41.572;24.730;2023-04-01T01:00:12;90671.72;;;3.70;100.00
59274;BME280;45044;41.572;24.730;2023-04-01T01:02:41;90670.66;;;3.75;100.00
59274;BME280;45044;41.572;24.730;2023-04-01T01:05:08;90668.19;;;3.82;100.00
59274;BME280;45044;41.572;24.730;2023-04-01T01:07:49;90666.81;;;3.88;100.00
59274;BME280;45044;41.572;24.730;2023-04-01T01:10:24;90668.44;;;3.97;100.00
59274;BME280;45044;41.572;24.730;2023-04-01T01:26:18;90661.31;;;4.17;100.00
59274;BME280;45044;41.572;24.730;2023-04-01T01:36:57;90660.19;;;4.41;100.00
59274;BME280;45044;41.572;24.730;2023-04-01T01:39:28;90656.22;;;4.24;100.00
59274;BME280;45044;41.572;24.730;2023-04-01T01:41:57;90661.69;;;4.42;100.00
59274;BME280;45044;41.572;24.730;2023-04-01T01:44:25;90657.00;;;4.52;100.00
59274;BME280;45044;41.572;24.730;2023-04-01T01:46:54;90652.09;;;4.47;100.00
59274;BME280;45044;41.572;24.730;2023-04-01T01:49:21;90651.63;;;4.14;100.00
59274;BME280;45044;41.572;24.730;2023-04-01T01:51:49;90646.31;;;4.06;100.00
59274;BME280;45044;41.572;24.730;2023-04-01T01:54:17;90645.53;;;4.06;100.00
59274;BME280;45044;41.572;24.730;2023-04-01T01:56:44;90635.84;;;4.03;100.00
59274;BME280;45044;41.572;24.730;2023-04-01T01:59:12;90644.91;;;4.13;100.00
59274;BME280;45044;41.572;24.730;2023-04-01T02:01:42;90638.06;;;4.28;100.00
59274;BME280;45044;41.572;24.730;2023-04-01T02:04:10;90634.44;;;4.36;100.00
59274;BME280;45044;41.572;24.730;2023-04-01T02:06:39;90637.19;;;4.47;100.00
59274;BME280;45044;41.572;24.730;2023-04-01T02:09:09;90632.84;;;4.55;100.00
59274;BME280;45044;41.572;24.730;2023-04-01T02:16:34;90615.69;;;4.81;100.00
59274;BME280;45044;41.572;24.730;2023-04-01T02:19:02;90630.22;;;4.82;100.00
59274;BME280;45044;41.572;24.730;2023-04-01T02:21:33;90618.88;;;4.67;100.00
59274;BME280;45044;41.572;24.730;2023-04-01T02:24:02;90621.84;;;4.38;100.00
59274;BME280;45044;41.572;24.730;2023-04-01T02:26:30;90616.22;;;4.36;100.00
59274;BME280;45044;41.572;24.730;2023-04-01T02:28:57;90618.66;;;4.49;100.00
59274;BME280;45044;41.572;24.730;2023-04-01T02:31:26;90613.59;;;4.60;100.00
59274;BME280;45044;41.572;24.730;2023-04-01T02:33:54;90611.41;;;4.65;100.00
59274;BME280;45044;41.572;24.730;2023-04-01T02:36:21;90605.56;;;4.72;100.00
59274;BME280;45044;41.572;24.730;2023-04-01T02:38:47;90599.69;;;4.79;100.00
59274;BME280;45044;41.572;24.730;2023-04-01T02:41:16;90583.88;;;4.64;100.00
59274;BME280;45044;41.572;24.730;2023-04-01T02:43:42;90592.00;;;4.59;100.00
59274;BME280;45044;41.572;24.730;2023-04-01T02:46:09;90587.56;;;4.60;100.00
59274;BME280;45044;41.572;24.730;2023-04-01T02:48:36;90592.00;;;4.59;100.00
59274;BME280;45044;41.572;24.730;2023-04-01T02:51:02;90589.50;;;4.66;100.00
59274;BME280;45044;41.572;24.730;2023-04-01T02:53:30;90597.22;;;4.59;100.00
59274;BME280;45044;41.572;24.730;2023-04-01T02:55:56;90589.31;;;4.52;100.00
59274;BME280;45044;41.572;24.730;2023-04-01T02:58:23;90591.72;;;4.37;100.00
59274;BME280;45044;41.572;24.730;2023-04-01T03:00:49;90588.31;;;4.33;100.00
59274;BME280;45044;41.572;24.730;2023-04-01T03:03:16;90596.63;;;4.42;100.00
59274;BME280;45044;41.572;24.730;2023-04-01T03:05:42;90591.41;;;4.42;100.00
59274;BME280;45044;41.572;24.730;2023-04-01T03:08:09;90601.81;;;4.42;100.00
59274;BME280;45044;41.572;24.730;2023-04-01T03:10:36;90608.94;;;4.46;100.00
59274;BME280;45044;41.572;24.730;2023-04-01T03:13:03;90605.31;;;4.54;100.00
59274;BME280;45044;41.572;24.730;2023-04-01T03:15:29;90593.50;;;4.60;100.00
59274;BME280;45044;41.572;24.730;2023-04-01T03:17:56;90596.56;;;4.39;100.00
59274;BME280;45044;41.572;24.730;2023-04-01T03:20:28;90594.81;;;4.47;100.00
59274;BME280;45044;41.572;24.730;2023-04-01T03:22:55;90595.28;;;4.25;100.00
59274;BME280;45044;41.572;24.730;2023-04-01T03:25:22;90588.06;;;4.15;100.00
59274;BME280;45044;41.572;24.730;2023-04-01T03:27:49;90574.44;;;4.22;100.00
59274;BME280;45044;41.572;24.730;2023-04-01T03:30:16;90564.56;;;4.07;100.00
59274;BME280;45044;41.572;24.730;2023-04-01T03:32:42;90561.00;;;4.19;100.00
59274;BME280;45044;41.572;24.730;2023-04-01T03:35:09;90564.59;;;4.11;100.00
59274;BME280;45044;41.572;24.730;2023-04-01T03:37:36;90553.88;;;4.16;100.00
59274;BME280;45044;41.572;24.730;2023-04-01T03:40:03;90552.50;;;4.23;100.00
59274;BME280;45044;41.572;24.730;2023-04-01T03:42:30;90548.41;;;4.22;100.00
59274;BME280;45044;41.572;24.730;2023-04-01T03:44:57;90543.97;;;4.26;100.00
59274;BME280;45044;41.572;24.730;2023-04-01T03:47:24;90551.06;;;4.25;100.00
59274;BME280;45044;41.572;24.730;2023-04-01T03:49:51;90544.28;;;3.93;100.00
59274;BME280;45044;41.572;24.730;2023-04-01T03:52:17;90549.25;;;3.75;100.00
59274;BME280;45044;41.572;24.730;2023-04-01T03:54:44;90544.91;;;3.83;100.00
59274;BME280;45044;41.572;24.730;2023-04-01T03:57:10;90547.19;;;3.88;100.00
59274;BME280;45044;41.572;24.730;2023-04-01T03:59:37;90550.22;;;3.90;100.00
59274;BME280;45044;41.572;24.730;2023-04-01T04:02:04;90546.91;;;3.93;100.00
59274;BME280;45044;41.572;24.730;2023-04-01T04:04:31;90548.13;;;4.00;100.00
59274;BME280;45044;41.572;24.730;2023-04-01T04:06:58;90546.34;;;4.07;100.00
59274;BME280;45044;41.572;24.730;2023-04-01T04:09:25;90548.31;;;4.14;100.00
59274;BME280;45044;41.572;24.730;2023-04-01T04:11:51;90540.94;;;4.20;100.00
59274;BME280;45044;41.572;24.730;2023-04-01T04:14:18;90532.84;;;4.29;100.00
59274;BME280;45044;41.572;24.730;2023-04-01T04:16:44;90527.75;;;4.36;100.00
59274;BME280;45044;41.572;24.730;2023-04-01T04:19:11;90529.78;;;4.19;100.00
59274;BME280;45044;41.572;24.730;2023-04-01T04:21:39;90545.41;;;3.92;100.00
59274;BME280;45044;41.572;24.730;2023-04-01T04:24:06;90525.13;;;4.05;100.00
59274;BME280;45044;41.572;24.730;2023-04-01T04:26:32;90530.47;;;4.16;100.00
59274;BME280;45044;41.572;24.730;2023-04-01T04:28:59;90519.44;;;4.23;100.00
59274;BME280;45044;41.572;24.730;2023-04-01T04:31:26;90510.41;;;4.17;100.00
59274;BME280;45044;41.572;24.730;2023-04-01T04:33:53;90509.06;;;4.27;100.00
59274;BME280;45044;41.572;24.730;2023-04-01T04:36:20;90508.34;;;4.30;100.00
59274;BME280;45044;41.572;24.730;2023-04-01T04:38:47;90515.84;;;4.35;100.00
59274;BME280;45044;41.572;24.730;2023-04-01T04:41:17;90516.25;;;4.06;100.00
59274;BME280;45044;41.572;24.730;2023-04-01T04:43:54;90522.44;;;4.29;100.00
59274;BME280;45044;41.572;24.730;2023-04-01T04:46:22;90518.69;;;4.23;100.00
59274;BME280;45044;41.572;24.730;2023-04-01T04:48:49;90515.81;;;4.31;100.00
59274;BME280;45044;41.572;24.730;2023-04-01T04:51:16;90515.22;;;4.46;100.00
59274;BME280;45044;41.572;24.730;2023-04-01T04:53:44;90514.19;;;4.50;100.00
59274;BME280;45044;41.572;24.730;2023-04-01T04:56:10;90505.22;;;4.48;100.00
59274;BME280;45044;41.572;24.730;2023-04-01T04:58:37;90505.94;;;4.79;100.00
59274;BME280;45044;41.572;24.730;2023-04-01T05:01:05;90506.50;;;4.99;100.00
59274;BME280;45044;41.572;24.730;2023-04-01T05:03:32;90501.53;;;5.25;100.00
59274;BME280;45044;41.572;24.730;2023-04-01T05:06:00;90507.22;;;5.42;100.00
59274;BME280;45044;41.572;24.730;2023-04-01T05:08:26;90507.03;;;5.61;100.00
59274;BME280;45044;41.572;24.730;2023-04-01T05:10:53;90497.34;;;5.66;100.00
59274;BME280;45044;41.572;24.730;2023-04-01T05:13:20;90491.59;;;5.42;100.00
59274;BME280;45044;41.572;24.730;2023-04-01T05:15:46;90484.06;;;5.33;100.00
59274;BME280;45044;41.572;24.730;2023-04-01T05:18:13;90488.31;;;5.03;100.00
59274;BME280;45044;41.572;24.730;2023-04-01T05:20:45;90484.75;;;5.22;100.00
59274;BME280;45044;41.572;24.730;2023-04-01T05:23:12;90485.94;;;5.32;100.00
59274;BME280;45044;41.572;24.730;2023-04-01T05:25:38;90491.16;;;5.32;100.00
59274;BME280;45044;41.572;24.730;2023-04-01T05:28:05;90491.56;;;5.34;100.00
59274;BME280;45044;41.572;24.730;2023-04-01T05:30:32;90491.22;;;5.39;100.00
59274;BME280;45044;41.572;24.730;2023-04-01T05:32:59;90490.91;;;5.48;100.00
59274;BME280;45044;41.572;24.730;2023-04-01T05:35:26;90485.78;;;5.59;100.00
59274;BME280;45044;41.572;24.730;2023-04-01T05:37:52;90495.13;;;5.64;100.00
59274;BME280;45044;41.572;24.730;2023-04-01T05:40:19;90492.59;;;5.75;100.00
59274;BME280;45044;41.572;24.730;2023-04-01T05:42:45;90485.19;;;5.84;100.00
59274;BME280;45044;41.572;24.730;2023-04-01T05:45:12;90486.75;;;5.96;100.00
59274;BME280;45044;41.572;24.730;2023-04-01T05:47:42;90485.69;;;6.05;100.00
59274;BME280;45044;41.572;24.730;2023-04-01T05:50:09;90474.91;;;6.06;100.00
59274;BME280;45044;41.572;24.730;2023-04-01T05:52:37;90464.06;;;6.04;100.00
59274;BME280;45044;41.572;24.730;2023-04-01T05:55:04;90464.38;;;5.95;100.00
59274;BME280;45044;41.572;24.730;2023-04-01T05:57:31;90456.53;;;5.88;100.00
59274;BME280;45044;41.572;24.730;2023-04-01T05:59:57;90456.22;;;6.01;100.00
59274;BME280;45044;41.572;24.730;2023-04-01T06:02:24;90461.03;;;5.95;100.00
59274;BME280;45044;41.572;24.730;2023-04-01T06:04:54;90459.28;;;6.14;100.00
59274;BME280;45044;41.572;24.730;2023-04-01T06:07:26;90459.50;;;5.86;100.00
59274;BME280;45044;41.572;24.730;2023-04-01T06:09:53;90467.38;;;5.94;100.00
59274;BME280;45044;41.572;24.730;2023-04-01T06:12:29;90458.78;;;5.93;100.00
59274;BME280;45044;41.572;24.730;2023-04-01T06:15:09;90463.34;;;5.51;100.00
59274;BME280;45044;41.572;24.730;2023-04-01T06:22:53;90474.91;;;6.06;100.00
59274;BME280;45044;41.572;24.730;2023-04-01T06:38:21;90443.88;;;7.67;100.00
59274;BME280;45044;41.572;24.730;2023-04-01T06:41:01;90443.00;;;8.32;100.00
59274;BME280;45044;41.572;24.730;2023-04-01T06:43:37;90433.75;;;8.95;100.00
59274;BME280;45044;41.572;24.730;2023-04-01T06:46:23;90428.19;;;9.43;100.00
59274;BME280;45044;41.572;24.730;2023-04-01T06:54:09;90427.44;;;9.42;100.00
59274;BME280;45044;41.572;24.730;2023-04-01T06:56:38;90424.28;;;9.09;100.00
59274;BME280;45044;41.572;24.730;2023-04-01T06:59:12;90422.16;;;8.93;100.00
59274;BME280;45044;41.572;24.730;2023-04-01T07:01:50;90420.22;;;9.04;100.00
59274;BME280;45044;41.572;24.730;2023-04-01T07:04:23;90422.75;;;9.15;100.00
59274;BME280;45044;41.572;24.730;2023-04-01T07:09:21;90427.47;;;12.91;100.00
59274;BME280;45044;41.572;24.730;2023-04-01T07:11:48;90426.00;;;14.07;89.68
59274;BME280;45044;41.572;24.730;2023-04-01T07:14:19;90423.88;;;14.74;81.73
59274;BME280;45044;41.572;24.730;2023-04-01T07:22:03;90400.66;;;14.09;61.76
59274;BME280;45044;41.572;24.730;2023-04-01T07:24:34;90397.03;;;13.57;64.26
59274;BME280;45044;41.572;24.730;2023-04-01T07:27:02;90403.88;;;12.84;66.01
59274;BME280;45044;41.572;24.730;2023-04-01T07:29:28;90409.13;;;12.67;67.55
59274;BME280;45044;41.572;24.730;2023-04-01T07:35:44;90387.84;;;12.57;74.50
59274;BME280;45044;41.572;24.730;2023-04-01T07:40:37;90375.91;;;13.23;70.29
59274;BME280;45044;41.572;24.730;2023-04-01T07:43:13;90371.53;;;13.50;66.86
59274;BME280;45044;41.572;24.730;2023-04-01T07:50:48;90355.72;;;14.39;61.11
59274;BME280;45044;41.572;24.730;2023-04-01T07:55:49;90356.53;;;16.69;54.82
59274;BME280;45044;41.572;24.730;2023-04-01T08:01:05;90336.31;;;19.01;46.58
59274;BME280;45044;41.572;24.730;2023-04-01T08:11:41;90347.19;;;18.78;45.05
59274;BME280;45044;41.572;24.730;2023-04-01T08:14:22;90349.28;;;17.52;46.55
59274;BME280;45044;41.572;24.730;2023-04-01T08:17:05;90342.66;;;17.76;46.25
59274;BME280;45044;41.572;24.730;2023-04-01T08:19:54;90366.22;;;18.24;46.13
59274;BME280;45044;41.572;24.730;2023-04-01T08:22:37;90336.13;;;20.12;42.59
59274;BME280;45044;41.572;24.730;2023-04-01T08:25:05;90346.50;;;18.59;44.10
59274;BME280;45044;41.572;24.730;2023-04-01T08:27:37;90346.53;;;19.36;43.41
59274;BME280;45044;41.572;24.730;2023-04-01T08:30:20;90346.91;;;18.67;43.81
59274;BME280;45044;41.572;24.730;2023-04-01T08:33:23;90320.00;;;19.08;42.74
59274;BME280;45044;41.572;24.730;2023-04-01T08:35:45;90317.56;;;19.54;42.24
59274;BME280;45044;41.572;24.730;2023-04-01T08:38:14;90313.88;;;19.51;42.54
59274;BME280;45044;41.572;24.730;2023-04-01T08:43:29;90300.00;;;18.26;44.10
59274;BME280;45044;41.572;24.730;2023-04-01T08:46:13;90323.63;;;17.68;44.61
59274;BME280;45044;41.572;24.730;2023-04-01T08:48:48;90325.13;;;17.88;43.49
59274;BME280;45044;41.572;24.730;2023-04-01T08:51:23;90303.66;;;18.48;43.76
59274;BME280;45044;41.572;24.730;2023-04-01T09:06:47;90275.69;;;19.30;40.48
59274;BME280;45044;41.572;24.730;2023-04-01T09:09:25;90258.66;;;17.97;42.22
59274;BME280;45044;41.572;24.730;2023-04-01T09:25:24;90250.44;;;17.48;44.19
59274;BME280;45044;41.572;24.730;2023-04-01T09:27:57;90253.66;;;17.33;44.37
59274;BME280;45044;41.572;24.730;2023-04-01T09:43:34;90232.38;;;16.55;46.76
59274;BME280;45044;41.572;24.730;2023-04-01T09:51:39;90207.06;;;18.66;45.90
59274;BME280;45044;41.572;24.730;2023-04-01T09:54:31;90212.28;;;18.85;44.04
59274;BME280;45044;41.572;24.730;2023-04-01T10:18:14;90196.94;;;16.90;46.95
59274;BME280;45044;41.572;24.730;2023-04-01T11:48:13;90128.63;;;15.25;75.40
59274;BME280;45044;41.572;24.730;2023-04-01T11:59:48;90116.22;;;15.35;79.67
59274;BME280;45044;41.572;24.730;2023-04-01T12:05:19;90094.97;;;16.31;70.53
59274;BME280;45044;41.572;24.730;2023-04-01T12:08:06;90092.78;;;16.38;72.07
59274;BME280;45044;41.572;24.730;2023-04-01T12:11:04;90099.53;;;16.21;68.03
59274;BME280;45044;41.572;24.730;2023-04-01T12:19:09;90072.63;;;15.27;75.25
59274;BME280;45044;41.572;24.730;2023-04-01T12:22:12;90071.97;;;14.78;76.95
59274;BME280;45044;41.572;24.730;2023-04-01T12:30:32;90058.75;;;15.45;76.21
59274;BME280;45044;41.572;24.730;2023-04-01T12:48:15;90068.09;;;14.69;72.41
59274;BME280;45044;41.572;24.730;2023-04-01T12:53:06;90050.91;;;15.73;69.82
59274;BME280;45044;41.572;24.730;2023-04-01T12:55:41;90085.88;;;15.59;68.03
59274;BME280;45044;41.572;24.730;2023-04-01T13:09:40;90043.56;;;16.19;65.99
59274;BME280;45044;41.572;24.730;2023-04-01T13:17:49;90036.09;;;14.90;74.71
59274;BME280;45044;41.572;24.730;2023-04-01T13:26:17;90042.28;;;13.76;92.19
59274;BME280;45044;41.572;24.730;2023-04-01T13:29:14;90041.03;;;13.68;93.84
59274;BME280;45044;41.572;24.730;2023-04-01T13:37:22;90029.41;;;13.92;91.02
59274;BME280;45044;41.572;24.730;2023-04-01T13:43:00;90032.06;;;13.52;99.53
59274;BME280;45044;41.572;24.730;2023-04-01T13:48:38;90027.59;;;13.49;100.00
59274;BME280;45044;41.572;24.730;2023-04-01T14:11:22;89999.84;;;13.71;100.00
59274;BME280;45044;41.572;24.730;2023-04-01T14:25:22;90003.41;;;13.38;100.00
59274;BME280;45044;41.572;24.730;2023-04-01T14:45:06;90076.31;;;11.79;100.00
59274;BME280;45044;41.572;24.730;2023-04-01T14:47:54;90090.38;;;11.56;100.00
59274;BME280;45044;41.572;24.730;2023-04-01T14:50:27;90089.38;;;10.92;100.00
59274;BME280;45044;41.572;24.730;2023-04-01T14:55:44;90105.34;;;10.81;100.00
59274;BME280;45044;41.572;24.730;2023-04-01T14:58:21;90099.56;;;10.42;100.00
59274;BME280;45044;41.572;24.730;2023-04-01T15:00:57;90117.13;;;10.01;100.00
59274;BME280;45044;41.572;24.730;2023-04-01T15:03:29;90110.38;;;10.00;100.00
59274;BME280;45044;41.572;24.730;2023-04-01T15:06:34;90085.09;;;10.10;100.00
59274;BME280;45044;41.572;24.730;2023-04-01T15:22:51;90096.88;;;9.46;100.00
59274;BME280;45044;41.572;24.730;2023-04-01T15:28:34;90111.38;;;9.82;100.00
59274;BME280;45044;41.572;24.730;2023-04-01T16:01:38;90099.31;;;9.88;100.00
59274;BME280;45044;41.572;24.730;2023-04-01T16:10:23;90087.06;;;9.78;100.00
59274;BME280;45044;41.572;24.730;2023-04-01T16:23:26;90094.63;;;10.00;100.00
59274;BME280;45044;41.572;24.730;2023-04-01T16:26:05;90096.06;;;10.04;100.00
59274;BME280;45044;41.572;24.730;2023-04-01T16:28:43;90091.38;;;9.92;100.00
59274;BME280;45044;41.572;24.730;2023-04-01T16:31:29;90089.69;;;9.78;100.00
59274;BME280;45044;41.572;24.730;2023-04-01T16:34:21;90089.69;;;9.78;100.00
59274;BME280;45044;41.572;24.730;2023-04-01T16:37:10;90094.66;;;9.72;100.00
59274;BME280;45044;41.572;24.730;2023-04-01T16:45:47;90104.63;;;9.26;100.00
59274;BME280;45044;41.572;24.730;2023-04-01T16:51:15;90090.03;;;9.25;100.00
59274;BME280;45044;41.572;24.730;2023-04-01T16:53:48;90074.78;;;8.84;100.00
59274;BME280;45044;41.572;24.730;2023-04-01T16:56:21;90073.28;;;8.45;100.00
59274;BME280;45044;41.572;24.730;2023-04-01T17:01:27;90092.81;;;8.79;100.00
59274;BME280;45044;41.572;24.730;2023-04-01T17:04:06;90096.28;;;8.68;100.00
59274;BME280;45044;41.572;24.730;2023-04-01T17:06:43;90095.47;;;8.75;100.00
59274;BME280;45044;41.572;24.730;2023-04-01T17:39:56;90152.63;;;7.96;100.00
59274;BME280;45044;41.572;24.730;2023-04-01T17:42:42;90154.97;;;7.75;100.00
59274;BME280;45044;41.572;24.730;2023-04-01T17:45:55;90148.66;;;7.69;100.00
59274;BME280;45044;41.572;24.730;2023-04-01T17:48:38;90150.91;;;7.67;100.00
59274;BME280;45044;41.572;24.730;2023-04-01T17:51:19;90153.94;;;7.58;100.00
59274;BME280;45044;41.572;24.730;2023-04-01T18:07:57;90171.25;;;7.34;100.00
59274;BME280;45044;41.572;24.730;2023-04-01T18:10:50;90172.72;;;7.35;100.00
59274;BME280;45044;41.572;24.730;2023-04-01T18:21:51;90190.09;;;6.70;100.00
59274;BME280;45044;41.572;24.730;2023-04-01T18:27:15;90201.31;;;6.63;100.00
59274;BME280;45044;41.572;24.730;2023-04-01T18:29:52;90210.63;;;6.46;100.00
59274;BME280;45044;41.572;24.730;2023-04-01T18:32:52;90204.31;;;6.36;100.00
59274;BME280;45044;41.572;24.730;2023-04-01T18:46:34;90229.66;;;6.35;100.00
59274;BME280;45044;41.572;24.730;2023-04-01T18:51:56;90244.47;;;5.84;100.00
59274;BME280;45044;41.572;24.730;2023-04-01T18:54:30;90259.44;;;6.05;100.00
59274;BME280;45044;41.572;24.730;2023-04-01T18:57:12;90275.09;;;6.05;100.00
59274;BME280;45044;41.572;24.730;2023-04-01T18:59:43;90287.75;;;6.03;100.00
59274;BME280;45044;41.572;24.730;2023-04-01T19:05:07;90304.97;;;6.30;100.00
59274;BME280;45044;41.572;24.730;2023-04-01T19:10:25;90298.25;;;6.18;100.00
59274;BME280;45044;41.572;24.730;2023-04-01T19:21:04;90313.19;;;6.25;100.00
59274;BME280;45044;41.572;24.730;2023-04-01T19:31:58;90325.81;;;6.11;100.00
59274;BME280;45044;41.572;24.730;2023-04-01T19:37:48;90329.97;;;5.34;100.00
59274;BME280;45044;41.572;24.730;2023-04-01T19:45:45;90335.19;;;5.42;100.00
59274;BME280;45044;41.572;24.730;2023-04-01T19:57:03;90337.63;;;5.91;100.00
59274;BME280;45044;41.572;24.730;2023-04-01T19:59:45;90323.47;;;5.84;100.00
59274;BME280;45044;41.572;24.730;2023-04-01T20:04:55;90330.97;;;5.97;100.00
59274;BME280;45044;41.572;24.730;2023-04-01T20:07:31;90332.84;;;6.00;100.00
59274;BME280;45044;41.572;24.730;2023-04-01T20:10:14;90333.94;;;5.95;100.00
59274;BME280;45044;41.572;24.730;2023-04-01T20:15:40;90355.28;;;5.37;100.00
59274;BME280;45044;41.572;24.730;2023-04-01T20:18:17;90313.84;;;5.18;100.00
59274;BME280;45044;41.572;24.730;2023-04-01T20:20:59;90343.19;;;5.07;100.00
59274;BME280;45044;41.572;24.730;2023-04-01T20:23:56;90343.31;;;5.29;100.00
59274;BME280;45044;41.572;24.730;2023-04-01T20:26:32;90339.69;;;5.45;100.00
59274;BME280;45044;41.572;24.730;2023-04-01T20:37:30;90341.19;;;5.46;100.00
59274;BME280;45044;41.572;24.730;2023-04-01T20:45:35;90336.94;;;5.19;100.00
59274;BME280;45044;41.572;24.730;2023-04-01T20:53:35;90341.75;;;5.13;100.00
59274;BME280;45044;41.572;24.730;2023-04-01T21:07:46;90366.88;;;4.91;100.00
59274;BME280;45044;41.572;24.730;2023-04-01T21:13:37;90362.50;;;4.15;100.00
59274;BME280;45044;41.572;24.730;2023-04-01T21:25:03;90375.41;;;4.42;100.00
59274;BME280;45044;41.572;24.730;2023-04-01T21:28:12;90380.59;;;4.42;100.00
59274;BME280;45044;41.572;24.730;2023-04-01T21:33:47;90370.25;;;4.50;100.00
59274;BME280;45044;41.572;24.730;2023-04-01T21:41:56;90362.41;;;4.08;100.00
59274;BME280;45044;41.572;24.730;2023-04-01T21:55:36;90374.50;;;3.93;100.00
59274;BME280;45044;41.572;24.730;2023-04-01T21:58:23;90368.50;;;4.19;100.00
59274;BME280;45044;41.572;24.730;2023-04-01T22:07:19;90370.41;;;4.26;100.00
59274;BME280;45044;41.572;24.730;2023-04-01T22:10:03;90363.13;;;4.05;100.00
59274;BME280;45044;41.572;24.730;2023-04-01T22:12:39;90367.69;;;4.15;100.00
59274;BME280;45044;41.572;24.730;2023-04-01T22:15:16;90370.25;;;3.77;100.00
59274;BME280;45044;41.572;24.730;2023-04-01T22:18:09;90365.56;;;3.90;100.00
59274;BME280;45044;41.572;24.730;2023-04-01T22:20:46;90376.63;;;4.14;100.00
59274;BME280;45044;41.572;24.730;2023-04-01T22:23:39;90387.03;;;4.14;100.00
59274;BME280;45044;41.572;24.730;2023-04-01T22:31:18;90370.94;;;4.43;100.00
59274;BME280;45044;41.572;24.730;2023-04-01T22:36:34;90376.41;;;4.30;100.00
59274;BME280;45044;41.572;24.730;2023-04-01T22:41:54;90347.38;;;3.59;100.00
59274;BME280;45044;41.572;24.730;2023-04-01T22:44:51;90384.19;;;3.62;100.00
59274;BME280;45044;41.572;24.730;2023-04-01T22:52:46;90388.00;;;4.02;100.00
59274;BME280;45044;41.572;24.730;2023-04-01T22:55:22;90378.41;;;4.10;100.00
59274;BME280;45044;41.572;24.730;2023-04-01T22:57:55;90374.53;;;3.97;100.00
59274;BME280;45044;41.572;24.730;2023-04-01T23:00:28;90385.66;;;3.93;100.00
59274;BME280;45044;41.572;24.730;2023-04-01T23:05:53;90387.50;;;3.62;100.00
59274;BME280;45044;41.572;24.730;2023-04-01T23:11:02;90404.94;;;3.58;100.00
59274;BME280;45044;41.572;24.730;2023-04-01T23:13:38;90405.88;;;3.77;100.00
59274;BME280;45044;41.572;24.730;2023-04-01T23:16:06;90401.63;;;3.34;100.00
59274;BME280;45044;41.572;24.730;2023-04-01T23:21:44;90409.41;;;3.61;100.00
59274;BME280;45044;41.572;24.730;2023-04-01T23:24:33;90407.84;;;3.56;100.00
59274;BME280;45044;41.572;24.730;2023-04-01T23:27:19;90410.22;;;3.38;100.00
59274;BME280;45044;41.572;24.730;2023-04-01T23:29:47;90402.41;;;3.38;100.00
59274;BME280;45044;41.572;24.730;2023-04-01T23:32:17;90421.59;;;3.30;100.00
59274;BME280;45044;41.572;24.730;2023-04-01T23:35:02;90416.66;;;3.21;100.00
59274;BME280;45044;41.572;24.730;2023-04-01T23:37:29;90424.19;;;3.30;100.00
59274;BME280;45044;41.572;24.730;2023-04-01T23:39:57;90439.81;;;3.57;100.00
59274;BME280;45044;41.572;24.730;2023-04-01T23:42:39;90437.66;;;3.63;100.00
59274;BME280;45044;41.572;24.730;2023-04-01T23:45:17;90425.81;;;3.65;100.00
59274;BME280;45044;41.572;24.730;2023-04-01T23:47:47;90422.91;;;3.70;100.00
59274;BME280;45044;41.572;24.730;2023-04-01T23:50:20;90446.72;;;3.73;100.00
59274;BME280;45044;41.572;24.730;2023-04-01T23:53:17;90428.31;;;3.58;100.00
59274;BME280;45044;41.572;24.730;2023-04-01T23:55:45;90434.81;;;3.44;100.00
59274;BME280;45044;41.572;24.730;2023-04-01T23:58:24;90446.50;;;3.58;100.00
